sensor_id;sensor_type;location;lat;lon;timestamp;P1;durP1;ratioP1;P2;durP2;ratioP2
50851;SDS011;43953;45.508;-122.806;2024-03-08T00:00:29;0.63;;;0.40;;
50851;SDS011;43953;45.508;-122.806;2024-03-08T00:01:03;0.30;;;0.30;;
50851;SDS011;43953;45.508;-122.806;2024-03-08T00:01:34;0.50;;;0.40;;
50851;SDS011;43953;45.508;-122.806;2024-03-08T00:02:06;0.45;;;0.40;;
50851;SDS011;43953;45.508;-122.806;2024-03-08T00:02:38;1.60;;;0.40;;
50851;SDS011;43953;45.508;-122.806;2024-03-08T00:03:10;1.48;;;0.47;;
50851;SDS011;43953;45.508;-122.806;2024-03-08T00:03:42;2.28;;;0.40;;
50851;SDS011;43953;45.508;-122.806;2024-03-08T00:04:14;1.65;;;0.35;;
50851;SDS011;43953;45.508;-122.806;2024-03-08T00:04:46;0.75;;;0.50;;
50851;SDS011;43953;45.508;-122.806;2024-03-08T00:05:18;0.70;;;0.32;;
50851;SDS011;43953;45.508;-122.806;2024-03-08T00:05:49;1.35;;;0.50;;
50851;SDS011;43953;45.508;-122.806;2024-03-08T00:06:21;4.18;;;0.88;;
50851;SDS011;43953;45.508;-122.806;2024-03-08T00:06:53;3.10;;;0.43;;
50851;SDS011;43953;45.508;-122.806;2024-03-08T00:07:25;2.47;;;0.40;;
50851;SDS011;43953;45.508;-122.806;2024-03-08T00:07:58;0.52;;;0.32;;
50851;SDS011;43953;45.508;-122.806;2024-03-08T00:08:31;2.85;;;0.52;;
50851;SDS011;43953;45.508;-122.806;2024-03-08T00:09:02;2.83;;;0.55;;
50851;SDS011;43953;45.508;-122.806;2024-03-08T00:09:34;1.45;;;0.68;;
50851;SDS011;43953;45.508;-122.806;2024-03-08T00:10:07;0.60;;;0.50;;
50851;SDS011;43953;45.508;-122.806;2024-03-08T00:10:44;0.47;;;0.30;;
50851;SDS011;43953;45.508;-122.806;2024-03-08T00:11:15;2.50;;;0.50;;
50851;SDS011;43953;45.508;-122.806;2024-03-08T00:11:48;0.43;;;0.30;;
50851;SDS011;43953;45.508;-122.806;2024-03-08T00:12:21;0.63;;;0.40;;
50851;SDS011;43953;45.508;-122.806;2024-03-08T00:12:52;0.30;;;0.30;;
50851;SDS011;43953;45.508;-122.806;2024-03-08T00:13:24;0.50;;;0.40;;
50851;SDS011;43953;45.508;-122.806;2024-03-08T00:13:56;0.63;;;0.50;;
50851;SDS011;43953;45.508;-122.806;2024-03-08T00:14:28;3.78;;;0.50;;
50851;SDS011;43953;45.508;-122.806;2024-03-08T00:14:59;1.10;;;0.45;;
50851;SDS011;43953;45.508;-122.806;2024-03-08T00:15:31;0.38;;;0.38;;
50851;SDS011;43953;45.508;-122.806;2024-03-08T00:16:03;0.93;;;0.30;;
50851;SDS011;43953;45.508;-122.806;2024-03-08T00:16:35;1.38;;;0.50;;
50851;SDS011;43953;45.508;-122.806;2024-03-08T00:17:07;1.65;;;0.50;;
50851;SDS011;43953;45.508;-122.806;2024-03-08T00:17:40;3.00;;;0.50;;
50851;SDS011;43953;45.508;-122.806;2024-03-08T00:18:12;2.90;;;0.60;;
50851;SDS011;43953;45.508;-122.806;2024-03-08T00:18:44;0.85;;;0.50;;
50851;SDS011;43953;45.508;-122.806;2024-03-08T00:19:15;1.70;;;0.47;;
50851;SDS011;43953;45.508;-122.806;2024-03-08T00:19:48;2.40;;;0.70;;
50851;SDS011;43953;45.508;-122.806;2024-03-08T00:20:23;1.23;;;0.50;;
50851;SDS011;43953;45.508;-122.806;2024-03-08T00:20:55;2.22;;;0.50;;
50851;SDS011;43953;45.508;-122.806;2024-03-08T00:21:27;1.35;;;0.40;;
50851;SDS011;43953;45.508;-122.806;2024-03-08T00:21:59;2.72;;;0.70;;
50851;SDS011;43953;45.508;-122.806;2024-03-08T00:22:31;1.67;;;0.60;;
50851;SDS011;43953;45.508;-122.806;2024-03-08T00:23:03;0.95;;;0.50;;
50851;SDS011;43953;45.508;-122.806;2024-03-08T00:23:35;1.38;;;0.47;;
50851;SDS011;43953;45.508;-122.806;2024-03-08T00:24:07;1.95;;;0.60;;
50851;SDS011;43953;45.508;-122.806;2024-03-08T00:24:39;2.15;;;0.43;;
50851;SDS011;43953;45.508;-122.806;2024-03-08T00:25:11;1.20;;;0.60;;
50851;SDS011;43953;45.508;-122.806;2024-03-08T00:25:43;7.38;;;0.57;;
50851;SDS011;43953;45.508;-122.806;2024-03-08T00:26:14;1.52;;;0.70;;
50851;SDS011;43953;45.508;-122.806;2024-03-08T00:26:46;2.40;;;0.60;;
50851;SDS011;43953;45.508;-122.806;2024-03-08T00:27:18;3.03;;;0.55;;
50851;SDS011;43953;45.508;-122.806;2024-03-08T00:27:51;1.27;;;0.70;;
50851;SDS011;43953;45.508;-122.806;2024-03-08T00:28:26;2.35;;;0.40;;
50851;SDS011;43953;45.508;-122.806;2024-03-08T00:28:58;1.88;;;0.90;;
50851;SDS011;43953;45.508;-122.806;2024-03-08T00:29:30;2.83;;;0.60;;
50851;SDS011;43953;45.508;-122.806;2024-03-08T00:30:02;3.50;;;1.30;;
50851;SDS011;43953;45.508;-122.806;2024-03-08T00:30:34;1.92;;;0.57;;
50851;SDS011;43953;45.508;-122.806;2024-03-08T00:31:05;1.77;;;0.50;;
50851;SDS011;43953;45.508;-122.806;2024-03-08T00:31:38;1.95;;;0.47;;
50851;SDS011;43953;45.508;-122.806;2024-03-08T00:32:09;1.63;;;0.70;;
50851;SDS011;43953;45.508;-122.806;2024-03-08T00:32:41;1.35;;;0.50;;
50851;SDS011;43953;45.508;-122.806;2024-03-08T00:33:13;2.17;;;0.60;;
50851;SDS011;43953;45.508;-122.806;2024-03-08T00:33:45;5.65;;;0.70;;
50851;SDS011;43953;45.508;-122.806;2024-03-08T00:34:17;2.72;;;0.70;;
50851;SDS011;43953;45.508;-122.806;2024-03-08T00:34:49;1.60;;;0.70;;
50851;SDS011;43953;45.508;-122.806;2024-03-08T00:35:22;1.98;;;0.60;;
50851;SDS011;43953;45.508;-122.806;2024-03-08T00:35:54;4.20;;;0.90;;
50851;SDS011;43953;45.508;-122.806;2024-03-08T00:36:26;0.60;;;0.32;;
50851;SDS011;43953;45.508;-122.806;2024-03-08T00:36:57;0.75;;;0.50;;
50851;SDS011;43953;45.508;-122.806;2024-03-08T00:37:29;1.33;;;0.57;;
50851;SDS011;43953;45.508;-122.806;2024-03-08T00:38:01;2.63;;;0.35;;
50851;SDS011;43953;45.508;-122.806;2024-03-08T00:38:33;2.25;;;0.45;;
50851;SDS011;43953;45.508;-122.806;2024-03-08T00:39:05;1.35;;;0.70;;
50851;SDS011;43953;45.508;-122.806;2024-03-08T00:39:37;1.23;;;0.60;;
50851;SDS011;43953;45.508;-122.806;2024-03-08T00:40:09;2.30;;;0.43;;
50851;SDS011;43953;45.508;-122.806;2024-03-08T00:40:41;5.38;;;0.52;;
50851;SDS011;43953;45.508;-122.806;2024-03-08T00:41:13;0.50;;;0.50;;
50851;SDS011;43953;45.508;-122.806;2024-03-08T00:41:45;1.77;;;0.40;;
50851;SDS011;43953;45.508;-122.806;2024-03-08T00:42:17;1.75;;;0.43;;
50851;SDS011;43953;45.508;-122.806;2024-03-08T00:42:50;0.75;;;0.30;;
50851;SDS011;43953;45.508;-122.806;2024-03-08T00:43:24;0.43;;;0.30;;
50851;SDS011;43953;45.508;-122.806;2024-03-08T00:43:55;0.40;;;0.40;;
50851;SDS011;43953;45.508;-122.806;2024-03-08T00:44:27;0.65;;;0.30;;
50851;SDS011;43953;45.508;-122.806;2024-03-08T00:44:59;2.35;;;0.65;;
50851;SDS011;43953;45.508;-122.806;2024-03-08T00:45:31;1.73;;;0.45;;
50851;SDS011;43953;45.508;-122.806;2024-03-08T00:46:03;0.85;;;0.30;;
50851;SDS011;43953;45.508;-122.806;2024-03-08T00:46:34;0.38;;;0.38;;
50851;SDS011;43953;45.508;-122.806;2024-03-08T00:47:06;0.73;;;0.40;;
50851;SDS011;43953;45.508;-122.806;2024-03-08T00:47:38;0.35;;;0.30;;
50851;SDS011;43953;45.508;-122.806;2024-03-08T00:48:10;1.77;;;0.50;;
50851;SDS011;43953;45.508;-122.806;2024-03-08T00:48:42;0.70;;;0.30;;
50851;SDS011;43953;45.508;-122.806;2024-03-08T00:49:14;0.77;;;0.50;;
50851;SDS011;43953;45.508;-122.806;2024-03-08T00:49:46;0.90;;;0.50;;
50851;SDS011;43953;45.508;-122.806;2024-03-08T00:50:18;0.95;;;0.30;;
50851;SDS011;43953;45.508;-122.806;2024-03-08T00:50:50;1.20;;;0.50;;
50851;SDS011;43953;45.508;-122.806;2024-03-08T00:51:22;2.88;;;0.40;;
50851;SDS011;43953;45.508;-122.806;2024-03-08T00:51:54;0.50;;;0.50;;
50851;SDS011;43953;45.508;-122.806;2024-03-08T00:52:26;1.83;;;0.60;;
50851;SDS011;43953;45.508;-122.806;2024-03-08T00:52:58;0.63;;;0.40;;
50851;SDS011;43953;45.508;-122.806;2024-03-08T00:53:30;0.85;;;0.50;;
50851;SDS011;43953;45.508;-122.806;2024-03-08T00:54:02;1.85;;;0.57;;
50851;SDS011;43953;45.508;-122.806;2024-03-08T00:54:34;0.65;;;0.47;;
50851;SDS011;43953;45.508;-122.806;2024-03-08T00:55:09;1.60;;;0.68;;
50851;SDS011;43953;45.508;-122.806;2024-03-08T00:55:42;0.80;;;0.52;;
50851;SDS011;43953;45.508;-122.806;2024-03-08T00:56:15;0.80;;;0.50;;
50851;SDS011;43953;45.508;-122.806;2024-03-08T00:56:47;0.30;;;0.30;;
50851;SDS011;43953;45.508;-122.806;2024-03-08T00:57:19;1.13;;;0.30;;
50851;SDS011;43953;45.508;-122.806;2024-03-08T00:57:52;0.43;;;0.40;;
50851;SDS011;43953;45.508;-122.806;2024-03-08T00:58:24;1.23;;;0.50;;
50851;SDS011;43953;45.508;-122.806;2024-03-08T00:58:56;1.73;;;0.40;;
50851;SDS011;43953;45.508;-122.806;2024-03-08T00:59:30;0.68;;;0.35;;
50851;SDS011;43953;45.508;-122.806;2024-03-08T01:00:05;1.67;;;0.50;;
50851;SDS011;43953;45.508;-122.806;2024-03-08T01:00:42;0.70;;;0.40;;
50851;SDS011;43953;45.508;-122.806;2024-03-08T01:01:15;0.38;;;0.30;;
50851;SDS011;43953;45.508;-122.806;2024-03-08T01:01:47;0.40;;;0.40;;
50851;SDS011;43953;45.508;-122.806;2024-03-08T01:02:19;0.68;;;0.30;;
50851;SDS011;43953;45.508;-122.806;2024-03-08T01:02:52;1.05;;;0.35;;
50851;SDS011;43953;45.508;-122.806;2024-03-08T01:03:23;1.23;;;0.55;;
50851;SDS011;43953;45.508;-122.806;2024-03-08T01:03:55;1.45;;;0.40;;
50851;SDS011;43953;45.508;-122.806;2024-03-08T01:04:27;0.70;;;0.38;;
50851;SDS011;43953;45.508;-122.806;2024-03-08T01:05:00;1.45;;;0.40;;
50851;SDS011;43953;45.508;-122.806;2024-03-08T01:05:31;1.73;;;0.50;;
50851;SDS011;43953;45.508;-122.806;2024-03-08T01:06:04;0.40;;;0.40;;
50851;SDS011;43953;45.508;-122.806;2024-03-08T01:06:36;1.38;;;0.60;;
50851;SDS011;43953;45.508;-122.806;2024-03-08T01:07:08;0.65;;;0.40;;
50851;SDS011;43953;45.508;-122.806;2024-03-08T01:07:39;1.80;;;0.30;;
50851;SDS011;43953;45.508;-122.806;2024-03-08T01:08:11;0.73;;;0.45;;
50851;SDS011;43953;45.508;-122.806;2024-03-08T01:08:43;0.32;;;0.22;;
50851;SDS011;43953;45.508;-122.806;2024-03-08T01:09:15;1.05;;;0.40;;
50851;SDS011;43953;45.508;-122.806;2024-03-08T01:09:48;0.45;;;0.40;;
50851;SDS011;43953;45.508;-122.806;2024-03-08T01:10:20;1.15;;;0.50;;
50851;SDS011;43953;45.508;-122.806;2024-03-08T01:10:51;0.85;;;0.45;;
50851;SDS011;43953;45.508;-122.806;2024-03-08T01:11:23;0.77;;;0.40;;
50851;SDS011;43953;45.508;-122.806;2024-03-08T01:11:55;0.30;;;0.30;;
50851;SDS011;43953;45.508;-122.806;2024-03-08T01:12:28;1.65;;;0.40;;
50851;SDS011;43953;45.508;-122.806;2024-03-08T01:13:00;0.45;;;0.30;;
50851;SDS011;43953;45.508;-122.806;2024-03-08T01:13:32;0.70;;;0.43;;
50851;SDS011;43953;45.508;-122.806;2024-03-08T01:14:03;0.50;;;0.38;;
50851;SDS011;43953;45.508;-122.806;2024-03-08T01:14:35;1.73;;;0.60;;
50851;SDS011;43953;45.508;-122.806;2024-03-08T01:15:07;0.70;;;0.40;;
50851;SDS011;43953;45.508;-122.806;2024-03-08T01:15:42;2.20;;;0.50;;
50851;SDS011;43953;45.508;-122.806;2024-03-08T01:16:14;0.75;;;0.40;;
50851;SDS011;43953;45.508;-122.806;2024-03-08T01:16:48;0.52;;;0.40;;
50851;SDS011;43953;45.508;-122.806;2024-03-08T01:17:20;0.40;;;0.30;;
50851;SDS011;43953;45.508;-122.806;2024-03-08T01:17:52;0.43;;;0.30;;
50851;SDS011;43953;45.508;-122.806;2024-03-08T01:18:24;0.40;;;0.40;;
50851;SDS011;43953;45.508;-122.806;2024-03-08T01:18:57;0.45;;;0.40;;
50851;SDS011;43953;45.508;-122.806;2024-03-08T01:19:29;0.40;;;0.40;;
50851;SDS011;43953;45.508;-122.806;2024-03-08T01:20:04;0.32;;;0.30;;
50851;SDS011;43953;45.508;-122.806;2024-03-08T01:20:36;0.70;;;0.40;;
50851;SDS011;43953;45.508;-122.806;2024-03-08T01:21:08;0.45;;;0.45;;
50851;SDS011;43953;45.508;-122.806;2024-03-08T01:21:39;0.32;;;0.30;;
50851;SDS011;43953;45.508;-122.806;2024-03-08T01:22:12;0.90;;;0.50;;
50851;SDS011;43953;45.508;-122.806;2024-03-08T01:22:43;0.82;;;0.30;;
50851;SDS011;43953;45.508;-122.806;2024-03-08T01:23:15;0.50;;;0.50;;
50851;SDS011;43953;45.508;-122.806;2024-03-08T01:23:47;0.50;;;0.30;;
50851;SDS011;43953;45.508;-122.806;2024-03-08T01:24:19;0.43;;;0.30;;
50851;SDS011;43953;45.508;-122.806;2024-03-08T01:24:51;0.30;;;0.28;;
50851;SDS011;43953;45.508;-122.806;2024-03-08T01:25:23;0.43;;;0.38;;
50851;SDS011;43953;45.508;-122.806;2024-03-08T01:25:56;0.28;;;0.28;;
50851;SDS011;43953;45.508;-122.806;2024-03-08T01:26:29;0.40;;;0.32;;
50851;SDS011;43953;45.508;-122.806;2024-03-08T01:27:02;0.38;;;0.30;;
50851;SDS011;43953;45.508;-122.806;2024-03-08T01:27:34;0.85;;;0.35;;
50851;SDS011;43953;45.508;-122.806;2024-03-08T01:28:07;0.38;;;0.30;;
50851;SDS011;43953;45.508;-122.806;2024-03-08T01:28:40;1.48;;;0.30;;
50851;SDS011;43953;45.508;-122.806;2024-03-08T01:29:12;0.40;;;0.30;;
50851;SDS011;43953;45.508;-122.806;2024-03-08T01:29:44;1.30;;;0.38;;
50851;SDS011;43953;45.508;-122.806;2024-03-08T01:30:15;0.52;;;0.47;;
50851;SDS011;43953;45.508;-122.806;2024-03-08T01:30:48;0.50;;;0.45;;
50851;SDS011;43953;45.508;-122.806;2024-03-08T01:31:21;0.30;;;0.30;;
50851;SDS011;43953;45.508;-122.806;2024-03-08T01:31:52;0.90;;;0.50;;
50851;SDS011;43953;45.508;-122.806;2024-03-08T01:32:24;0.60;;;0.30;;
50851;SDS011;43953;45.508;-122.806;2024-03-08T01:32:56;0.30;;;0.30;;
50851;SDS011;43953;45.508;-122.806;2024-03-08T01:33:28;1.00;;;0.60;;
50851;SDS011;43953;45.508;-122.806;2024-03-08T01:34:01;0.30;;;0.30;;
50851;SDS011;43953;45.508;-122.806;2024-03-08T01:34:32;0.47;;;0.40;;
50851;SDS011;43953;45.508;-122.806;2024-03-08T01:35:04;1.17;;;0.40;;
50851;SDS011;43953;45.508;-122.806;2024-03-08T01:35:36;0.50;;;0.35;;
50851;SDS011;43953;45.508;-122.806;2024-03-08T01:36:12;0.43;;;0.32;;
50851;SDS011;43953;45.508;-122.806;2024-03-08T01:36:46;0.32;;;0.30;;
50851;SDS011;43953;45.508;-122.806;2024-03-08T01:37:18;0.43;;;0.35;;
50851;SDS011;43953;45.508;-122.806;2024-03-08T01:37:49;0.55;;;0.35;;
50851;SDS011;43953;45.508;-122.806;2024-03-08T01:38:21;0.30;;;0.30;;
50851;SDS011;43953;45.508;-122.806;2024-03-08T01:38:53;0.43;;;0.30;;
50851;SDS011;43953;45.508;-122.806;2024-03-08T01:39:24;0.50;;;0.45;;
50851;SDS011;43953;45.508;-122.806;2024-03-08T01:39:57;0.57;;;0.40;;
50851;SDS011;43953;45.508;-122.806;2024-03-08T01:40:31;0.68;;;0.40;;
50851;SDS011;43953;45.508;-122.806;2024-03-08T01:41:03;0.70;;;0.50;;
50851;SDS011;43953;45.508;-122.806;2024-03-08T01:41:35;1.17;;;0.40;;
50851;SDS011;43953;45.508;-122.806;2024-03-08T01:42:07;0.25;;;0.20;;
50851;SDS011;43953;45.508;-122.806;2024-03-08T01:42:39;0.45;;;0.40;;
50851;SDS011;43953;45.508;-122.806;2024-03-08T01:43:20;1.00;;;0.50;;
50851;SDS011;43953;45.508;-122.806;2024-03-08T01:43:53;1.67;;;0.50;;
50851;SDS011;43953;45.508;-122.806;2024-03-08T01:44:25;0.60;;;0.40;;
50851;SDS011;43953;45.508;-122.806;2024-03-08T01:44:57;1.38;;;0.52;;
50851;SDS011;43953;45.508;-122.806;2024-03-08T01:45:28;0.52;;;0.40;;
50851;SDS011;43953;45.508;-122.806;2024-03-08T01:46:00;0.85;;;0.45;;
50851;SDS011;43953;45.508;-122.806;2024-03-08T01:46:33;1.85;;;0.30;;
50851;SDS011;43953;45.508;-122.806;2024-03-08T01:47:06;0.90;;;0.50;;
50851;SDS011;43953;45.508;-122.806;2024-03-08T01:47:38;1.15;;;0.50;;
50851;SDS011;43953;45.508;-122.806;2024-03-08T01:48:10;0.52;;;0.40;;
50851;SDS011;43953;45.508;-122.806;2024-03-08T01:48:43;0.43;;;0.40;;
50851;SDS011;43953;45.508;-122.806;2024-03-08T01:49:15;0.95;;;0.30;;
50851;SDS011;43953;45.508;-122.806;2024-03-08T01:49:49;0.30;;;0.30;;
50851;SDS011;43953;45.508;-122.806;2024-03-08T01:50:21;0.30;;;0.30;;
50851;SDS011;43953;45.508;-122.806;2024-03-08T01:50:53;0.50;;;0.50;;
50851;SDS011;43953;45.508;-122.806;2024-03-08T01:51:26;0.45;;;0.45;;
50851;SDS011;43953;45.508;-122.806;2024-03-08T01:51:59;0.32;;;0.28;;
50851;SDS011;43953;45.508;-122.806;2024-03-08T01:52:32;0.43;;;0.32;;
50851;SDS011;43953;45.508;-122.806;2024-03-08T01:53:05;0.80;;;0.40;;
50851;SDS011;43953;45.508;-122.806;2024-03-08T01:53:38;0.30;;;0.30;;
50851;SDS011;43953;45.508;-122.806;2024-03-08T01:54:10;1.55;;;0.40;;
50851;SDS011;43953;45.508;-122.806;2024-03-08T01:54:43;0.68;;;0.40;;
50851;SDS011;43953;45.508;-122.806;2024-03-08T01:55:16;0.40;;;0.38;;
50851;SDS011;43953;45.508;-122.806;2024-03-08T01:55:49;1.25;;;0.40;;
50851;SDS011;43953;45.508;-122.806;2024-03-08T01:56:24;0.80;;;0.40;;
50851;SDS011;43953;45.508;-122.806;2024-03-08T01:56:56;0.50;;;0.28;;
50851;SDS011;43953;45.508;-122.806;2024-03-08T01:57:30;0.47;;;0.43;;
50851;SDS011;43953;45.508;-122.806;2024-03-08T01:58:07;0.85;;;0.50;;
50851;SDS011;43953;45.508;-122.806;2024-03-08T01:58:42;0.88;;;0.70;;
50851;SDS011;43953;45.508;-122.806;2024-03-08T01:59:14;0.50;;;0.50;;
50851;SDS011;43953;45.508;-122.806;2024-03-08T01:59:46;0.60;;;0.40;;
50851;SDS011;43953;45.508;-122.806;2024-03-08T02:00:19;1.65;;;0.65;;
50851;SDS011;43953;45.508;-122.806;2024-03-08T02:00:52;0.60;;;0.60;;
50851;SDS011;43953;45.508;-122.806;2024-03-08T02:01:24;1.40;;;0.50;;
50851;SDS011;43953;45.508;-122.806;2024-03-08T02:01:56;2.58;;;0.50;;
50851;SDS011;43953;45.508;-122.806;2024-03-08T02:02:33;0.50;;;0.50;;
50851;SDS011;43953;45.508;-122.806;2024-03-08T02:03:05;1.02;;;0.50;;
50851;SDS011;43953;45.508;-122.806;2024-03-08T02:03:37;1.02;;;0.50;;
50851;SDS011;43953;45.508;-122.806;2024-03-08T02:04:09;1.35;;;0.50;;
50851;SDS011;43953;45.508;-122.806;2024-03-08T02:04:41;1.33;;;0.43;;
50851;SDS011;43953;45.508;-122.806;2024-03-08T02:05:12;1.48;;;0.50;;
50851;SDS011;43953;45.508;-122.806;2024-03-08T02:05:45;2.22;;;0.50;;
50851;SDS011;43953;45.508;-122.806;2024-03-08T02:06:17;0.45;;;0.40;;
50851;SDS011;43953;45.508;-122.806;2024-03-08T02:06:49;0.93;;;0.52;;
50851;SDS011;43953;45.508;-122.806;2024-03-08T02:07:20;3.75;;;0.55;;
50851;SDS011;43953;45.508;-122.806;2024-03-08T02:07:52;6.25;;;0.90;;
50851;SDS011;43953;45.508;-122.806;2024-03-08T02:08:25;6.55;;;0.75;;
50851;SDS011;43953;45.508;-122.806;2024-03-08T02:08:57;2.45;;;0.50;;
50851;SDS011;43953;45.508;-122.806;2024-03-08T02:09:28;1.27;;;0.57;;
50851;SDS011;43953;45.508;-122.806;2024-03-08T02:10:00;1.10;;;0.40;;
50851;SDS011;43953;45.508;-122.806;2024-03-08T02:10:35;1.45;;;0.45;;
50851;SDS011;43953;45.508;-122.806;2024-03-08T02:11:07;1.65;;;0.50;;
50851;SDS011;43953;45.508;-122.806;2024-03-08T02:11:40;0.90;;;0.50;;
50851;SDS011;43953;45.508;-122.806;2024-03-08T02:12:12;1.60;;;0.60;;
50851;SDS011;43953;45.508;-122.806;2024-03-08T02:12:46;1.90;;;0.50;;
50851;SDS011;43953;45.508;-122.806;2024-03-08T02:13:18;1.52;;;0.70;;
50851;SDS011;43953;45.508;-122.806;2024-03-08T02:13:50;1.35;;;0.70;;
50851;SDS011;43953;45.508;-122.806;2024-03-08T02:14:22;1.30;;;0.70;;
50851;SDS011;43953;45.508;-122.806;2024-03-08T02:14:54;1.48;;;0.40;;
50851;SDS011;43953;45.508;-122.806;2024-03-08T02:15:26;4.40;;;0.98;;
50851;SDS011;43953;45.508;-122.806;2024-03-08T02:15:59;3.25;;;0.80;;
50851;SDS011;43953;45.508;-122.806;2024-03-08T02:16:31;2.15;;;0.50;;
50851;SDS011;43953;45.508;-122.806;2024-03-08T02:17:04;4.43;;;0.60;;
50851;SDS011;43953;45.508;-122.806;2024-03-08T02:17:35;3.15;;;0.80;;
50851;SDS011;43953;45.508;-122.806;2024-03-08T02:18:07;3.40;;;0.90;;
50851;SDS011;43953;45.508;-122.806;2024-03-08T02:18:39;4.78;;;0.80;;
50851;SDS011;43953;45.508;-122.806;2024-03-08T02:19:10;1.48;;;0.68;;
50851;SDS011;43953;45.508;-122.806;2024-03-08T02:19:42;2.22;;;1.00;;
50851;SDS011;43953;45.508;-122.806;2024-03-08T02:20:14;2.78;;;0.70;;
50851;SDS011;43953;45.508;-122.806;2024-03-08T02:20:49;2.90;;;0.90;;
50851;SDS011;43953;45.508;-122.806;2024-03-08T02:21:22;1.80;;;1.10;;
50851;SDS011;43953;45.508;-122.806;2024-03-08T02:21:55;2.67;;;1.00;;
50851;SDS011;43953;45.508;-122.806;2024-03-08T02:22:30;2.67;;;1.42;;
50851;SDS011;43953;45.508;-122.806;2024-03-08T02:23:04;2.80;;;1.27;;
50851;SDS011;43953;45.508;-122.806;2024-03-08T02:23:36;1.80;;;1.00;;
50851;SDS011;43953;45.508;-122.806;2024-03-08T02:24:08;1.63;;;1.50;;
50851;SDS011;43953;45.508;-122.806;2024-03-08T02:24:40;2.78;;;1.42;;
50851;SDS011;43953;45.508;-122.806;2024-03-08T02:25:12;3.03;;;1.70;;
50851;SDS011;43953;45.508;-122.806;2024-03-08T02:25:43;3.55;;;1.48;;
50851;SDS011;43953;45.508;-122.806;2024-03-08T02:26:18;4.40;;;1.63;;
50851;SDS011;43953;45.508;-122.806;2024-03-08T02:26:50;4.85;;;2.00;;
50851;SDS011;43953;45.508;-122.806;2024-03-08T02:27:24;3.40;;;2.10;;
50851;SDS011;43953;45.508;-122.806;2024-03-08T02:27:56;3.50;;;2.80;;
50851;SDS011;43953;45.508;-122.806;2024-03-08T02:28:28;4.70;;;2.30;;
50851;SDS011;43953;45.508;-122.806;2024-03-08T02:29:00;4.15;;;3.08;;
50851;SDS011;43953;45.508;-122.806;2024-03-08T02:29:33;7.20;;;3.50;;
50851;SDS011;43953;45.508;-122.806;2024-03-08T02:30:05;6.05;;;2.63;;
50851;SDS011;43953;45.508;-122.806;2024-03-08T02:30:38;4.47;;;2.20;;
50851;SDS011;43953;45.508;-122.806;2024-03-08T02:31:09;3.95;;;2.63;;
50851;SDS011;43953;45.508;-122.806;2024-03-08T02:31:41;4.72;;;2.50;;
50851;SDS011;43953;45.508;-122.806;2024-03-08T02:32:13;6.60;;;2.88;;
50851;SDS011;43953;45.508;-122.806;2024-03-08T02:32:44;4.00;;;2.30;;
50851;SDS011;43953;45.508;-122.806;2024-03-08T02:33:17;2.60;;;2.00;;
50851;SDS011;43953;45.508;-122.806;2024-03-08T02:33:50;3.20;;;2.17;;
50851;SDS011;43953;45.508;-122.806;2024-03-08T02:34:22;5.38;;;2.55;;
50851;SDS011;43953;45.508;-122.806;2024-03-08T02:34:56;3.85;;;2.13;;
50851;SDS011;43953;45.508;-122.806;2024-03-08T02:35:31;1.77;;;1.40;;
50851;SDS011;43953;45.508;-122.806;2024-03-08T02:36:03;2.85;;;1.42;;
50851;SDS011;43953;45.508;-122.806;2024-03-08T02:36:37;4.05;;;1.88;;
50851;SDS011;43953;45.508;-122.806;2024-03-08T02:37:08;3.50;;;1.90;;
50851;SDS011;43953;45.508;-122.806;2024-03-08T02:37:40;4.53;;;2.35;;
50851;SDS011;43953;45.508;-122.806;2024-03-08T02:38:12;3.47;;;2.30;;
50851;SDS011;43953;45.508;-122.806;2024-03-08T02:38:47;3.58;;;2.40;;
50851;SDS011;43953;45.508;-122.806;2024-03-08T02:39:18;3.55;;;1.95;;
50851;SDS011;43953;45.508;-122.806;2024-03-08T02:39:50;5.90;;;2.67;;
50851;SDS011;43953;45.508;-122.806;2024-03-08T02:40:22;2.97;;;2.10;;
50851;SDS011;43953;45.508;-122.806;2024-03-08T02:40:54;4.80;;;2.40;;
50851;SDS011;43953;45.508;-122.806;2024-03-08T02:41:25;6.28;;;2.83;;
50851;SDS011;43953;45.508;-122.806;2024-03-08T02:41:57;4.95;;;2.63;;
50851;SDS011;43953;45.508;-122.806;2024-03-08T02:42:29;2.83;;;2.42;;
50851;SDS011;43953;45.508;-122.806;2024-03-08T02:43:00;4.25;;;2.45;;
50851;SDS011;43953;45.508;-122.806;2024-03-08T02:43:32;3.25;;;2.20;;
50851;SDS011;43953;45.508;-122.806;2024-03-08T02:44:04;3.63;;;2.10;;
50851;SDS011;43953;45.508;-122.806;2024-03-08T02:44:38;3.42;;;1.85;;
50851;SDS011;43953;45.508;-122.806;2024-03-08T02:45:14;2.45;;;1.55;;
50851;SDS011;43953;45.508;-122.806;2024-03-08T02:45:46;2.58;;;1.48;;
50851;SDS011;43953;45.508;-122.806;2024-03-08T02:46:18;3.50;;;1.77;;
50851;SDS011;43953;45.508;-122.806;2024-03-08T02:46:49;2.05;;;1.50;;
50851;SDS011;43953;45.508;-122.806;2024-03-08T02:47:21;2.22;;;1.70;;
50851;SDS011;43953;45.508;-122.806;2024-03-08T02:47:53;2.25;;;2.00;;
50851;SDS011;43953;45.508;-122.806;2024-03-08T02:48:24;3.05;;;1.90;;
50851;SDS011;43953;45.508;-122.806;2024-03-08T02:48:56;3.28;;;1.75;;
50851;SDS011;43953;45.508;-122.806;2024-03-08T02:49:28;2.60;;;1.80;;
50851;SDS011;43953;45.508;-122.806;2024-03-08T02:50:00;3.22;;;2.00;;
50851;SDS011;43953;45.508;-122.806;2024-03-08T02:50:32;3.08;;;1.88;;
50851;SDS011;43953;45.508;-122.806;2024-03-08T02:51:05;3.70;;;1.92;;
50851;SDS011;43953;45.508;-122.806;2024-03-08T02:51:37;2.85;;;1.63;;
50851;SDS011;43953;45.508;-122.806;2024-03-08T02:52:09;2.20;;;1.77;;
50851;SDS011;43953;45.508;-122.806;2024-03-08T02:52:45;2.45;;;1.73;;
50851;SDS011;43953;45.508;-122.806;2024-03-08T02:53:19;2.45;;;1.67;;
50851;SDS011;43953;45.508;-122.806;2024-03-08T02:53:51;2.03;;;1.73;;
50851;SDS011;43953;45.508;-122.806;2024-03-08T02:54:23;1.83;;;1.63;;
50851;SDS011;43953;45.508;-122.806;2024-03-08T02:54:55;2.58;;;1.55;;
50851;SDS011;43953;45.508;-122.806;2024-03-08T02:55:27;2.22;;;1.67;;
50851;SDS011;43953;45.508;-122.806;2024-03-08T02:55:59;2.90;;;1.77;;
50851;SDS011;43953;45.508;-122.806;2024-03-08T02:56:30;2.65;;;1.45;;
50851;SDS011;43953;45.508;-122.806;2024-03-08T02:57:05;2.70;;;1.60;;
50851;SDS011;43953;45.508;-122.806;2024-03-08T02:57:38;4.50;;;1.70;;
50851;SDS011;43953;45.508;-122.806;2024-03-08T02:58:09;2.85;;;1.80;;
50851;SDS011;43953;45.508;-122.806;2024-03-08T02:58:41;3.28;;;1.50;;
50851;SDS011;43953;45.508;-122.806;2024-03-08T02:59:13;2.58;;;1.60;;
50851;SDS011;43953;45.508;-122.806;2024-03-08T02:59:48;2.03;;;1.83;;
50851;SDS011;43953;45.508;-122.806;2024-03-08T03:00:20;2.55;;;1.63;;
50851;SDS011;43953;45.508;-122.806;2024-03-08T03:00:54;2.08;;;1.55;;
50851;SDS011;43953;45.508;-122.806;2024-03-08T03:01:28;2.35;;;1.77;;
50851;SDS011;43953;45.508;-122.806;2024-03-08T03:02:00;2.05;;;1.70;;
50851;SDS011;43953;45.508;-122.806;2024-03-08T03:02:31;1.50;;;1.23;;
50851;SDS011;43953;45.508;-122.806;2024-03-08T03:03:04;9.55;;;1.63;;
50851;SDS011;43953;45.508;-122.806;2024-03-08T03:03:37;4.25;;;1.80;;
50851;SDS011;43953;45.508;-122.806;2024-03-08T03:04:09;3.05;;;1.58;;
50851;SDS011;43953;45.508;-122.806;2024-03-08T03:04:40;3.05;;;2.05;;
50851;SDS011;43953;45.508;-122.806;2024-03-08T03:05:12;2.42;;;1.60;;
50851;SDS011;43953;45.508;-122.806;2024-03-08T03:05:44;3.53;;;1.65;;
50851;SDS011;43953;45.508;-122.806;2024-03-08T03:06:16;4.57;;;1.92;;
50851;SDS011;43953;45.508;-122.806;2024-03-08T03:06:51;2.72;;;1.67;;